createdAt,value
2023-03-14T00:00:17.076Z,1.30
2023-03-14T00:01:17.082Z,1.40
2023-03-14T00:02:17.107Z,1.50
2023-03-14T00:03:17.060Z,1.30
2023-03-14T00:04:17.031Z,1.30
2023-03-14T00:05:17.020Z,1.50
2023-03-14T00:06:17.012Z,1.50
2023-03-14T00:07:17.034Z,1.40
2023-03-14T00:08:17.002Z,1.20
2023-03-14T00:09:17.000Z,1.50
2023-03-14T00:10:16.974Z,1.50
2023-03-14T00:11:16.959Z,1.40
2023-03-14T00:12:16.947Z,1.40
2023-03-14T00:13:16.950Z,1.40
2023-03-14T00:14:16.919Z,1.80
2023-03-14T00:15:16.923Z,1.40
2023-03-14T00:16:16.969Z,1.40
2023-03-14T00:17:16.890Z,1.40
2023-03-14T00:18:16.899Z,1.20
2023-03-14T00:19:16.874Z,1.20
2023-03-14T00:20:16.854Z,1.20
2023-03-14T00:21:16.868Z,1.30
2023-03-14T00:22:16.840Z,1.00
2023-03-14T00:23:16.835Z,1.30
2023-03-14T00:24:16.828Z,1.10
2023-03-14T00:25:16.812Z,1.20
2023-03-14T00:26:16.797Z,1.10
2023-03-14T00:27:16.785Z,1.20
2023-03-14T00:28:16.774Z,1.30
2023-03-14T00:29:16.769Z,1.30
2023-03-14T00:30:16.748Z,1.20
2023-03-14T00:31:16.843Z,1.20
2023-03-14T00:32:16.729Z,1.20
2023-03-14T00:33:16.739Z,1.20
2023-03-14T00:34:16.706Z,1.20
2023-03-14T00:35:16.703Z,1.10
2023-03-14T00:36:16.684Z,1.30
2023-03-14T00:37:16.674Z,1.40
2023-03-14T00:38:16.677Z,1.40
2023-03-14T00:39:16.651Z,1.30
2023-03-14T00:40:16.663Z,1.30
2023-03-14T00:41:16.637Z,1.20
2023-03-14T00:42:16.622Z,1.10
2023-03-14T00:43:16.641Z,1.20
2023-03-14T00:44:16.595Z,1.10
2023-03-14T00:45:16.587Z,1.40
2023-03-14T00:46:16.615Z,1.30
2023-03-14T00:47:16.565Z,1.50
2023-03-14T00:48:16.556Z,1.50
2023-03-14T00:49:16.545Z,1.00
2023-03-14T00:50:16.532Z,1.40
2023-03-14T00:51:16.606Z,1.30
2023-03-14T00:52:16.531Z,1.20
2023-03-14T00:53:16.509Z,1.20
2023-03-14T00:54:16.492Z,1.20
2023-03-14T00:55:16.484Z,1.50
2023-03-14T00:56:16.472Z,1.30
2023-03-14T00:57:16.467Z,1.40
2023-03-14T00:58:16.451Z,1.30
2023-03-14T00:59:16.434Z,1.30
2023-03-14T01:00:16.425Z,1.70
2023-03-14T01:01:16.442Z,1.40
2023-03-14T01:02:16.399Z,1.30
2023-03-14T01:03:16.532Z,1.40
2023-03-14T01:04:16.385Z,1.40
2023-03-14T01:05:16.371Z,1.40
2023-03-14T01:06:16.360Z,1.30
2023-03-14T01:07:16.367Z,1.30
2023-03-14T01:08:16.349Z,1.20
2023-03-14T01:09:16.330Z,1.30
2023-03-14T01:10:16.345Z,1.20
2023-03-14T01:11:16.343Z,1.50
2023-03-14T01:12:16.317Z,1.40
2023-03-14T01:13:16.309Z,1.20
2023-03-14T01:14:16.279Z,1.40
2023-03-14T01:15:16.269Z,1.40
2023-03-14T01:16:16.344Z,1.30
2023-03-14T01:17:16.246Z,1.40
2023-03-14T01:18:16.252Z,1.50
2023-03-14T01:19:16.222Z,1.50
2023-03-14T01:20:16.213Z,1.40
2023-03-14T01:21:16.224Z,1.30
2023-03-14T01:22:16.198Z,1.40
2023-03-14T01:23:16.193Z,1.30
2023-03-14T01:24:16.187Z,1.40
2023-03-14T01:25:16.161Z,1.30
2023-03-14T01:26:16.151Z,1.70
2023-03-14T01:27:16.142Z,1.20
2023-03-14T01:28:16.192Z,1.20
2023-03-14T01:29:16.137Z,1.70
2023-03-14T01:30:16.111Z,1.30
2023-03-14T01:31:16.179Z,1.30
2023-03-14T01:32:16.083Z,1.40
2023-03-14T01:33:16.088Z,1.30
2023-03-14T01:34:16.081Z,1.40
2023-03-14T01:35:16.061Z,1.30
2023-03-14T01:36:16.039Z,1.20
2023-03-14T01:37:16.033Z,1.30
2023-03-14T01:38:16.040Z,1.60
2023-03-14T01:39:16.020Z,1.40
2023-03-14T01:40:16.002Z,1.40
2023-03-14T01:41:16.001Z,1.50
2023-03-14T01:42:15.974Z,1.30
2023-03-14T01:43:15.978Z,1.60
2023-03-14T01:44:15.957Z,1.50
2023-03-14T01:45:15.947Z,1.20
2023-03-14T01:46:15.949Z,1.50
2023-03-14T01:47:15.948Z,1.20
2023-03-14T01:48:15.932Z,1.30
2023-03-14T01:49:15.902Z,1.70
2023-03-14T01:50:15.898Z,1.80
2023-03-14T01:51:15.887Z,1.50
2023-03-14T01:52:15.875Z,1.30
2023-03-14T01:53:15.867Z,1.40
2023-03-14T01:54:15.852Z,1.40
2023-03-14T01:55:15.844Z,1.60
2023-03-14T01:56:15.831Z,1.50
2023-03-14T01:57:15.851Z,1.90
2023-03-14T01:58:15.828Z,1.40
2023-03-14T01:59:15.808Z,1.50
2023-03-14T02:00:15.788Z,1.60
2023-03-14T02:01:15.795Z,1.50
2023-03-14T02:02:15.775Z,1.30
2023-03-14T02:03:15.831Z,1.50
2023-03-14T02:04:15.753Z,1.50
2023-03-14T02:05:15.731Z,1.60
2023-03-14T02:06:15.725Z,1.60
2023-03-14T02:07:15.706Z,1.70
2023-03-14T02:08:15.712Z,1.90
2023-03-14T02:09:15.694Z,1.40
2023-03-14T02:10:15.685Z,1.60
2023-03-14T02:11:15.661Z,1.70
2023-03-14T02:12:15.690Z,1.70
2023-03-14T02:13:15.651Z,1.90
2023-03-14T02:14:15.633Z,1.60
2023-03-14T02:15:15.618Z,1.60
2023-03-14T02:16:15.649Z,1.70
2023-03-14T02:17:15.594Z,1.70
2023-03-14T02:18:15.626Z,1.70
2023-03-14T02:19:15.576Z,1.70
2023-03-14T02:20:15.560Z,1.70
2023-03-14T02:21:15.556Z,1.50
2023-03-14T02:22:15.560Z,1.20
2023-03-14T02:23:15.554Z,1.10
2023-03-14T02:24:15.524Z,1.20
2023-03-14T02:25:15.512Z,1.20
2023-03-14T02:26:15.511Z,1.00
2023-03-14T02:27:15.516Z,1.10
2023-03-14T02:28:15.495Z,1.30
2023-03-14T02:29:15.471Z,1.10
2023-03-14T02:30:15.486Z,1.40
2023-03-14T02:31:15.478Z,1.50
2023-03-14T02:32:15.442Z,1.10
2023-03-14T02:33:15.432Z,1.10
2023-03-14T02:34:15.423Z,1.40
2023-03-14T02:35:15.406Z,1.10
2023-03-14T02:36:15.535Z,1.60
2023-03-14T02:37:15.378Z,1.20
2023-03-14T02:38:15.386Z,1.30
2023-03-14T02:39:15.360Z,0.90
2023-03-14T02:40:15.351Z,0.90
2023-03-14T02:41:15.337Z,1.00
2023-03-14T02:42:15.335Z,1.00
2023-03-14T02:43:15.325Z,0.90
2023-03-14T02:44:15.313Z,1.20
2023-03-14T02:45:15.299Z,1.10
2023-03-14T02:46:15.341Z,1.30
2023-03-14T02:47:15.291Z,1.40
2023-03-14T02:48:15.275Z,1.30
2023-03-14T02:49:15.251Z,1.30
2023-03-14T02:50:15.244Z,1.40
2023-03-14T02:51:15.267Z,1.40
2023-03-14T02:52:15.227Z,1.60
2023-03-14T02:53:15.222Z,1.30
2023-03-14T02:54:15.194Z,1.40
2023-03-14T02:55:15.189Z,1.40
2023-03-14T02:56:15.170Z,1.40
2023-03-14T02:57:15.154Z,1.20
2023-03-14T02:58:15.156Z,1.30
2023-03-14T02:59:15.137Z,1.40
2023-03-14T03:00:15.133Z,1.10
2023-03-14T03:01:15.221Z,1.20
2023-03-14T03:02:15.123Z,1.00
2023-03-14T03:03:15.175Z,1.10
2023-03-14T03:04:15.095Z,1.30
2023-03-14T03:05:15.080Z,1.20
2023-03-14T03:06:15.074Z,1.30
2023-03-14T03:07:15.089Z,1.70
2023-03-14T03:08:15.056Z,1.20
2023-03-14T03:09:15.026Z,1.20
2023-03-14T03:10:15.024Z,0.90
2023-03-14T03:11:15.018Z,1.10
2023-03-14T03:12:15.005Z,1.10
2023-03-14T03:13:15.010Z,0.90
2023-03-14T03:14:14.989Z,1.20
2023-03-14T03:15:14.970Z,1.40
2023-03-14T03:16:15.104Z,1.10
2023-03-14T03:17:14.948Z,1.00
2023-03-14T03:18:14.962Z,1.20
2023-03-14T03:19:14.932Z,0.80
2023-03-14T03:20:14.923Z,1.20
2023-03-14T03:21:14.916Z,1.00
2023-03-14T03:22:14.893Z,1.00
2023-03-14T03:23:14.898Z,1.40
2023-03-14T03:24:14.906Z,1.00
2023-03-14T03:25:14.873Z,1.10
2023-03-14T03:26:14.867Z,1.40
2023-03-14T03:27:14.841Z,0.90
2023-03-14T03:28:14.845Z,1.40
2023-03-14T03:29:14.825Z,1.90
2023-03-14T03:32:36.528Z,1.00
2023-03-14T03:33:37.509Z,1.20
2023-03-14T03:34:37.492Z,1.30
2023-03-14T03:35:37.502Z,1.10
2023-03-14T03:36:37.470Z,1.20
2023-03-14T03:37:37.472Z,0.90
2023-03-14T03:38:37.457Z,1.00
2023-03-14T03:39:37.439Z,1.00
2023-03-14T03:40:37.425Z,1.20
2023-03-14T03:41:37.416Z,1.00
2023-03-14T03:42:37.399Z,1.00
2023-03-14T03:43:37.402Z,1.10
2023-03-14T03:44:37.380Z,1.20
2023-03-14T03:45:37.372Z,1.00
2023-03-14T03:46:37.357Z,1.10
2023-03-14T03:47:37.353Z,1.20
2023-03-14T03:48:37.381Z,1.20
2023-03-14T03:49:37.346Z,1.30
2023-03-14T03:50:37.319Z,1.20
2023-03-14T03:51:37.307Z,1.30
2023-03-14T03:52:37.295Z,1.40
2023-03-14T03:53:37.300Z,1.20
2023-03-14T03:54:37.273Z,1.30
2023-03-14T03:55:37.271Z,1.30
2023-03-14T03:56:37.256Z,1.10
2023-03-14T03:57:37.262Z,1.00
2023-03-14T03:58:37.246Z,1.00
2023-03-14T03:59:37.230Z,1.30
2023-03-14T04:00:37.213Z,1.20
2023-03-14T04:01:37.207Z,1.40
2023-03-14T04:02:37.252Z,1.20
2023-03-14T04:03:37.231Z,1.00
2023-03-14T04:04:37.177Z,1.20
2023-03-14T04:05:37.170Z,1.10
2023-03-14T04:06:37.215Z,1.10
2023-03-14T04:07:37.168Z,1.30
2023-03-14T04:08:37.157Z,1.10
2023-03-14T04:09:37.126Z,1.10
2023-03-14T04:10:37.107Z,1.20
2023-03-14T04:11:37.103Z,1.10
2023-03-14T04:12:37.125Z,1.10
2023-03-14T04:13:37.095Z,1.60
2023-03-14T04:14:37.068Z,1.10
2023-03-14T04:15:37.113Z,1.30
2023-03-14T04:16:37.051Z,1.20
2023-03-14T04:17:37.041Z,1.20
2023-03-14T04:18:37.036Z,1.40
2023-03-14T04:19:37.021Z,2.10
2023-03-14T04:20:37.004Z,1.40
2023-03-14T04:21:36.996Z,1.20
2023-03-14T04:22:36.996Z,1.20
2023-03-14T04:23:36.988Z,1.40
2023-03-14T04:24:36.963Z,2.00
2023-03-14T04:25:36.948Z,1.40
2023-03-14T04:26:36.945Z,1.70
2023-03-14T04:27:36.931Z,1.50
2023-03-14T04:28:36.946Z,1.30
2023-03-14T04:29:36.913Z,1.40
2023-03-14T04:30:36.901Z,1.50
2023-03-14T04:31:36.950Z,1.60
2023-03-14T04:32:36.905Z,1.50
2023-03-14T04:33:36.880Z,1.70
2023-03-14T04:34:36.852Z,1.60
2023-03-14T04:35:36.893Z,1.60
2023-03-14T04:36:39.630Z,1.50
2023-03-14T04:37:36.825Z,1.60
2023-03-14T04:38:36.831Z,1.60
2023-03-14T04:39:36.809Z,1.40
2023-03-14T04:40:36.799Z,2.00
2023-03-14T04:41:36.796Z,1.50
2023-03-14T04:42:36.770Z,1.40
2023-03-14T04:43:36.771Z,1.20
2023-03-14T04:44:36.751Z,1.50
2023-03-14T04:45:36.747Z,1.40
2023-03-14T04:46:36.765Z,2.20
2023-03-14T04:47:36.718Z,1.60
2023-03-14T04:48:36.718Z,2.00
2023-03-14T04:49:36.694Z,1.90
2023-03-14T04:50:36.688Z,1.40
2023-03-14T04:51:36.675Z,1.30
2023-03-14T04:52:36.673Z,1.40
2023-03-14T04:53:36.669Z,1.90
2023-03-14T04:54:36.646Z,1.20
2023-03-14T04:55:36.642Z,1.20
2023-03-14T04:56:36.634Z,1.20
2023-03-14T04:57:36.611Z,1.20
2023-03-14T04:58:36.624Z,1.30
2023-03-14T04:59:36.587Z,1.20
2023-03-14T05:00:38.780Z,1.00
2023-03-14T05:01:36.615Z,1.10
2023-03-14T05:02:36.606Z,1.20
2023-03-14T05:03:36.559Z,1.30
2023-03-14T05:04:36.541Z,1.20
2023-03-14T05:05:36.542Z,1.30
2023-03-14T05:06:36.528Z,1.10
2023-03-14T05:07:36.516Z,1.30
2023-03-14T05:08:36.511Z,1.40
2023-03-14T05:09:36.485Z,1.10
2023-03-14T05:10:36.481Z,1.10
2023-03-14T05:11:36.456Z,1.00
2023-03-14T05:12:36.461Z,1.00
2023-03-14T05:13:38.605Z,1.10
2023-03-14T05:14:36.431Z,0.90
2023-03-14T05:15:36.422Z,1.00
2023-03-14T05:16:36.598Z,1.10
2023-03-14T05:17:36.394Z,0.90
2023-03-14T05:18:36.403Z,0.90
2023-03-14T05:19:36.369Z,0.90
2023-03-14T05:20:36.368Z,1.10
2023-03-14T05:21:36.352Z,1.10
2023-03-14T05:22:36.287Z,0.90
2023-03-14T05:23:36.283Z,0.90
2023-03-14T05:24:36.269Z,1.00
2023-03-14T05:25:36.262Z,0.90
2023-03-14T05:26:36.245Z,0.90
2023-03-14T05:27:36.235Z,1.00
2023-03-14T05:28:36.245Z,0.90
2023-03-14T05:29:36.215Z,0.90
2023-03-14T05:30:36.228Z,1.30
2023-03-14T05:31:36.231Z,0.80
2023-03-14T05:32:36.275Z,0.70
2023-03-14T05:33:36.187Z,0.80
2023-03-14T05:34:36.167Z,0.70
2023-03-14T05:35:36.231Z,0.60
2023-03-14T05:36:36.170Z,0.90
2023-03-14T05:37:36.139Z,0.80
2023-03-14T05:38:36.133Z,0.70
2023-03-14T05:39:36.123Z,0.60
2023-03-14T05:40:36.101Z,0.60
2023-03-14T05:41:36.087Z,1.10
2023-03-14T05:42:36.080Z,0.70
2023-03-14T05:43:36.091Z,0.60
2023-03-14T05:44:36.076Z,0.60
2023-03-14T05:45:36.091Z,0.80
2023-03-14T05:46:36.043Z,0.70
2023-03-14T05:47:36.034Z,0.60
2023-03-14T05:48:36.037Z,0.60
2023-03-14T05:49:36.019Z,0.60
2023-03-14T05:50:36.003Z,0.70
2023-03-14T05:51:35.990Z,0.60
2023-03-14T05:52:35.984Z,0.70
2023-03-14T05:53:35.976Z,0.60
2023-03-14T05:54:35.958Z,0.60
2023-03-14T05:55:35.955Z,0.60
2023-03-14T05:56:35.944Z,0.50
2023-03-14T05:57:35.917Z,0.60
2023-03-14T05:58:35.927Z,0.60
2023-03-14T05:59:35.895Z,0.60
2023-03-14T06:00:35.889Z,0.70
2023-03-14T06:01:35.888Z,0.50
2023-03-14T06:02:35.872Z,0.70
2023-03-14T06:03:35.922Z,0.50
2023-03-14T06:04:35.854Z,0.70
2023-03-14T06:05:35.832Z,0.70
2023-03-14T06:06:35.832Z,0.60
2023-03-14T06:07:35.810Z,0.50
2023-03-14T06:08:35.814Z,0.60
2023-03-14T06:09:35.797Z,0.50
2023-03-14T06:10:35.786Z,0.50
2023-03-14T06:11:35.812Z,0.50
2023-03-14T06:12:35.777Z,0.70
2023-03-14T06:13:35.766Z,0.60
2023-03-14T06:14:35.751Z,0.50
2023-03-14T06:15:35.724Z,0.50
2023-03-14T06:16:35.751Z,0.50
2023-03-14T06:17:35.708Z,0.50
2023-03-14T06:18:35.710Z,0.60
2023-03-14T06:19:35.684Z,0.60
2023-03-14T06:20:35.679Z,0.50
2023-03-14T06:21:35.661Z,0.60
2023-03-14T06:22:35.660Z,0.60
2023-03-14T06:23:35.653Z,0.60
2023-03-14T06:24:35.637Z,0.60
2023-03-14T06:25:35.623Z,0.50
2023-03-14T06:26:35.613Z,0.40
2023-03-14T06:27:35.609Z,0.40
2023-03-14T06:28:35.615Z,0.50
2023-03-14T06:29:35.609Z,0.50
2023-03-14T06:30:35.648Z,0.50
2023-03-14T06:31:35.559Z,0.50
2023-03-14T06:32:35.601Z,0.60
2023-03-14T06:33:35.572Z,0.60
2023-03-14T06:34:35.539Z,0.70
2023-03-14T06:35:35.526Z,0.60
2023-03-14T06:36:35.519Z,0.50
2023-03-14T06:37:35.495Z,0.60
2023-03-14T06:38:35.501Z,0.30
2023-03-14T06:39:35.491Z,0.50
2023-03-14T06:40:35.472Z,0.60
2023-03-14T06:41:35.461Z,0.60
2023-03-14T06:42:35.452Z,0.40
2023-03-14T06:43:35.446Z,0.50
2023-03-14T06:44:35.428Z,0.40
2023-03-14T06:45:35.425Z,0.60
2023-03-14T06:46:35.411Z,0.50
2023-03-14T06:47:35.399Z,0.60
2023-03-14T06:48:35.403Z,0.60
2023-03-14T06:49:35.383Z,0.50
2023-03-14T06:50:35.371Z,0.60
2023-03-14T06:51:35.355Z,0.70
2023-03-14T06:52:35.406Z,0.70
2023-03-14T06:53:35.338Z,0.70
2023-03-14T06:54:35.328Z,0.40
2023-03-14T06:55:35.305Z,0.40
2023-03-14T06:56:35.330Z,0.40
2023-03-14T06:57:35.288Z,0.50
2023-03-14T06:58:35.289Z,0.30
2023-03-14T06:59:35.273Z,0.40
2023-03-14T07:00:35.279Z,0.40
2023-03-14T07:01:35.269Z,0.40
2023-03-14T07:02:42.627Z,0.40
2023-03-14T07:03:35.244Z,0.40
2023-03-14T07:04:35.255Z,0.30
2023-03-14T07:05:35.429Z,0.30
2023-03-14T07:06:35.212Z,0.50
2023-03-14T07:07:35.183Z,0.30
2023-03-14T07:08:35.185Z,0.40
2023-03-14T07:09:35.172Z,0.40
2023-03-14T07:10:35.152Z,0.30
2023-03-14T07:11:35.153Z,0.40
2023-03-14T07:12:35.137Z,0.50
2023-03-14T07:13:35.142Z,0.40
2023-03-14T07:14:35.111Z,0.50
2023-03-14T07:15:35.151Z,0.50
2023-03-14T07:16:35.101Z,0.50
2023-03-14T07:17:35.085Z,0.50
2023-03-14T07:18:35.202Z,0.60
2023-03-14T07:19:35.122Z,0.60
2023-03-14T07:20:35.068Z,0.40
2023-03-14T07:21:35.050Z,0.40
2023-03-14T07:22:35.064Z,0.40
2023-03-14T07:23:35.027Z,0.50
2023-03-14T07:24:35.016Z,0.40
2023-03-14T07:25:35.004Z,0.50
2023-03-14T07:26:34.999Z,0.50
2023-03-14T07:27:35.040Z,0.50
2023-03-14T07:28:35.044Z,0.50
2023-03-14T07:29:34.954Z,0.40
2023-03-14T07:30:34.949Z,0.40
2023-03-14T07:31:35.010Z,0.40
2023-03-14T07:32:34.984Z,0.40
2023-03-14T07:33:34.921Z,0.70
2023-03-14T07:34:34.923Z,0.40
2023-03-14T07:35:34.956Z,0.40
2023-03-14T07:36:34.895Z,0.50
2023-03-14T07:37:34.908Z,0.30
2023-03-14T07:38:34.882Z,0.30
2023-03-14T07:39:34.874Z,0.40
2023-03-14T07:40:34.841Z,0.40
2023-03-14T07:41:34.869Z,0.60
2023-03-14T07:42:34.830Z,0.40
2023-03-14T07:43:34.818Z,0.40
2023-03-14T07:44:34.796Z,0.50
2023-03-14T07:45:42.540Z,0.40
2023-03-14T07:46:34.833Z,0.50
2023-03-14T07:47:34.779Z,0.60
2023-03-14T07:48:34.821Z,0.40
2023-03-14T07:49:34.756Z,0.40
2023-03-14T07:50:34.754Z,0.30
2023-03-14T07:51:34.716Z,0.40
2023-03-14T07:52:34.718Z,0.50
2023-03-14T07:53:34.711Z,0.20
2023-03-14T07:54:34.687Z,0.40
2023-03-14T07:55:34.704Z,0.40
2023-03-14T07:56:34.870Z,0.40
2023-03-14T07:57:34.806Z,0.30
2023-03-14T07:58:34.919Z,0.40
2023-03-14T07:59:34.669Z,0.30
2023-03-14T08:00:34.650Z,0.30
2023-03-14T08:01:34.617Z,0.30
2023-03-14T08:02:34.645Z,0.40
2023-03-14T08:03:34.682Z,0.40
2023-03-14T08:04:34.589Z,0.30
2023-03-14T08:05:34.598Z,0.30
2023-03-14T08:06:34.605Z,0.30
2023-03-14T08:07:34.540Z,0.30
2023-03-14T08:08:34.584Z,0.30
2023-03-14T08:09:34.551Z,0.30
2023-03-14T08:10:34.530Z,0.30
2023-03-14T08:11:34.555Z,0.30
2023-03-14T08:12:34.496Z,0.40
2023-03-14T08:13:34.489Z,0.30
2023-03-14T08:14:34.494Z,0.30
2023-03-14T08:15:34.469Z,0.20
2023-03-14T08:16:34.509Z,0.40
2023-03-14T08:17:34.446Z,0.30
2023-03-14T08:18:35.504Z,0.30
2023-03-14T08:19:34.423Z,0.30
2023-03-14T08:20:34.406Z,0.40
2023-03-14T08:21:34.406Z,0.30
2023-03-14T08:22:34.398Z,0.40
2023-03-14T08:23:34.381Z,0.20
2023-03-14T08:24:34.386Z,0.30
2023-03-14T08:25:34.420Z,0.30
2023-03-14T08:26:34.342Z,0.30
2023-03-14T08:27:34.327Z,0.30
2023-03-14T08:28:34.369Z,0.40
2023-03-14T08:29:34.332Z,0.20
2023-03-14T08:30:34.544Z,0.20
2023-03-14T08:31:34.321Z,0.40
2023-03-14T08:32:35.464Z,0.30
2023-03-14T08:33:34.309Z,0.20
2023-03-14T08:34:34.274Z,0.30
2023-03-14T08:35:34.244Z,0.20
2023-03-14T08:36:34.315Z,0.30
2023-03-14T08:37:34.223Z,0.30
2023-03-14T08:38:34.258Z,0.30
2023-03-14T08:39:34.202Z,0.20
2023-03-14T08:40:34.208Z,0.30
2023-03-14T08:41:34.196Z,0.30
2023-03-14T08:42:34.173Z,0.20
2023-03-14T08:43:34.235Z,0.20
2023-03-14T08:44:35.274Z,0.20
2023-03-14T08:45:34.150Z,0.30
2023-03-14T08:46:34.244Z,0.30
2023-03-14T08:47:34.145Z,0.20
2023-03-14T08:48:34.118Z,0.20
2023-03-14T08:49:34.160Z,0.30
2023-03-14T08:50:34.192Z,0.20
2023-03-14T08:51:34.101Z,0.30
2023-03-14T08:52:34.181Z,0.20
2023-03-14T08:53:34.076Z,0.10
2023-03-14T08:54:34.074Z,0.20
2023-03-14T08:55:34.034Z,0.20
2023-03-14T08:56:34.022Z,0.30
2023-03-14T08:57:34.040Z,0.20
2023-03-14T08:58:34.013Z,0.30
2023-03-14T08:59:34.024Z,0.20
2023-03-14T09:00:33.989Z,0.20
2023-03-14T09:01:34.081Z,0.30
2023-03-14T09:02:33.945Z,0.20
2023-03-14T09:03:33.986Z,0.20
2023-03-14T09:04:34.211Z,0.20
2023-03-14T09:05:33.925Z,0.20
2023-03-14T09:06:33.913Z,0.30
2023-03-14T09:07:33.947Z,0.10
2023-03-14T09:08:33.936Z,0.20
2023-03-14T09:09:33.880Z,0.20
2023-03-14T09:10:33.870Z,0.30
2023-03-14T09:11:33.856Z,0.20
2023-03-14T09:12:33.851Z,0.20
2023-03-14T09:13:33.899Z,0.20
2023-03-14T09:14:33.921Z,0.20
2023-03-14T09:15:33.817Z,0.20
2023-03-14T09:16:33.834Z,0.20
2023-03-14T09:17:33.802Z,0.20
2023-03-14T09:18:33.802Z,0.30
2023-03-14T09:19:33.796Z,0.30
2023-03-14T09:20:33.777Z,0.30
2023-03-14T09:21:33.887Z,0.30
2023-03-14T09:22:33.749Z,0.20
2023-03-14T09:23:33.792Z,0.20
2023-03-14T09:24:33.731Z,0.40
2023-03-14T09:25:33.708Z,0.30
2023-03-14T09:26:33.694Z,0.30
2023-03-14T09:27:33.717Z,0.30
2023-03-14T09:28:33.715Z,0.30
2023-03-14T09:29:33.663Z,0.30
2023-03-14T09:30:33.655Z,0.40
2023-03-14T09:31:33.689Z,0.30
2023-03-14T09:32:33.719Z,0.40
2023-03-14T09:33:33.641Z,0.30
2023-03-14T09:34:35.782Z,0.30
2023-03-14T09:35:33.620Z,0.30
2023-03-14T09:36:33.586Z,0.40
2023-03-14T09:37:33.574Z,0.50
2023-03-14T09:38:33.593Z,0.40
2023-03-14T09:39:33.558Z,0.20
2023-03-14T09:40:33.535Z,0.30
2023-03-14T09:41:33.537Z,0.40
2023-03-14T09:42:33.554Z,0.40
2023-03-14T09:43:33.511Z,0.60
2023-03-14T09:44:33.510Z,0.40
2023-03-14T09:45:33.485Z,0.30
2023-03-14T09:46:33.471Z,0.20
2023-03-14T09:47:33.467Z,0.30
2023-03-14T09:48:33.446Z,0.30
2023-03-14T09:49:33.455Z,0.30
2023-03-14T09:50:33.422Z,0.30
2023-03-14T09:51:33.427Z,0.40
2023-03-14T09:52:33.402Z,0.30
2023-03-14T09:53:33.393Z,0.30
2023-03-14T09:54:33.585Z,0.30
2023-03-14T09:55:35.521Z,0.40
2023-03-14T09:56:33.370Z,0.40
2023-03-14T09:57:33.393Z,0.50
2023-03-14T09:58:33.350Z,0.40
2023-03-14T09:59:33.404Z,0.40
2023-03-14T10:00:33.323Z,0.50
2023-03-14T10:01:33.474Z,0.40
2023-03-14T10:02:33.287Z,0.40
2023-03-14T10:03:33.333Z,0.40
2023-03-14T10:04:33.320Z,0.60
2023-03-14T10:05:33.308Z,0.50
2023-03-14T10:06:33.291Z,0.40
2023-03-14T10:07:33.269Z,0.70
2023-03-14T10:08:33.244Z,0.80
2023-03-14T10:09:33.244Z,0.80
2023-03-14T10:10:33.199Z,0.70
2023-03-14T10:11:33.193Z,0.90
2023-03-14T10:12:33.256Z,0.90
2023-03-14T10:13:33.171Z,0.90
2023-03-14T10:14:33.177Z,1.00
2023-03-14T10:15:33.158Z,1.20
2023-03-14T10:16:33.191Z,1.30
2023-03-14T10:17:33.134Z,1.00
2023-03-14T10:18:33.116Z,1.10
2023-03-14T10:19:33.139Z,1.10
2023-03-14T10:20:33.094Z,1.10
2023-03-14T10:21:33.089Z,1.30
2023-03-14T10:22:33.078Z,1.40
2023-03-14T10:23:33.064Z,1.40
2023-03-14T10:24:33.071Z,1.10
2023-03-14T10:25:33.240Z,1.20
2023-03-14T10:26:33.036Z,1.50
2023-03-14T10:27:33.030Z,1.20
2023-03-14T10:28:33.005Z,1.20
2023-03-14T10:29:33.042Z,1.30
2023-03-14T10:30:33.009Z,1.30
2023-03-14T10:31:33.046Z,1.40
2023-03-14T10:32:33.656Z,1.20
2023-03-14T10:33:32.967Z,1.40
2023-03-14T10:34:32.958Z,1.20
2023-03-14T10:35:33.005Z,1.20
2023-03-14T10:36:33.038Z,1.30
2023-03-14T10:37:32.951Z,1.20
2023-03-14T10:38:32.957Z,1.50
2023-03-14T10:39:33.271Z,1.30
2023-03-14T10:40:33.119Z,1.40
2023-03-14T10:41:33.223Z,1.70
2023-03-14T10:42:33.001Z,1.70
2023-03-14T10:43:32.882Z,1.80
2023-03-14T10:44:32.918Z,1.30
2023-03-14T10:45:32.841Z,1.60
2023-03-14T10:46:32.845Z,1.50
2023-03-14T10:47:32.819Z,1.40
2023-03-14T10:48:32.805Z,1.50
2023-03-14T10:49:33.093Z,1.40
2023-03-14T10:50:32.895Z,1.50
2023-03-14T10:51:32.812Z,1.50
2023-03-14T10:52:57.440Z,1.80
2023-03-14T10:53:32.761Z,12.10
2023-03-14T10:54:33.006Z,9.20
2023-03-14T10:55:32.732Z,2.10
2023-03-14T10:56:32.714Z,2.50
2023-03-14T10:57:32.717Z,2.20
2023-03-14T10:58:33.393Z,2.40
2023-03-14T10:59:32.677Z,2.20
2023-03-14T11:00:32.721Z,2.30
2023-03-14T11:01:32.683Z,2.50
2023-03-14T11:02:32.659Z,2.30
2023-03-14T11:03:32.645Z,2.00
2023-03-14T11:04:32.810Z,2.30
2023-03-14T11:05:32.638Z,2.00
2023-03-14T11:06:32.777Z,2.50
2023-03-14T11:07:32.597Z,2.00
2023-03-14T11:08:33.519Z,2.50
2023-03-14T11:09:32.586Z,2.30
2023-03-14T11:10:32.571Z,1.90
2023-03-14T11:11:32.616Z,2.00
2023-03-14T11:12:32.564Z,1.90
2023-03-14T11:13:32.534Z,2.10
2023-03-14T11:14:32.604Z,2.40
2023-03-14T11:15:32.577Z,2.00
2023-03-14T11:16:32.553Z,2.20
2023-03-14T11:17:32.495Z,2.00
2023-03-14T11:18:32.474Z,2.20
2023-03-14T11:19:33.724Z,2.40
2023-03-14T11:20:32.476Z,2.20
2023-03-14T11:21:32.460Z,1.80
2023-03-14T11:22:32.431Z,1.90
2023-03-14T11:23:32.417Z,1.90
2023-03-14T11:24:32.426Z,1.60
2023-03-14T11:25:32.417Z,1.90
2023-03-14T11:26:32.402Z,1.80
2023-03-14T11:27:32.384Z,1.70
2023-03-14T11:28:32.365Z,1.60
2023-03-14T11:29:32.368Z,1.70
2023-03-14T11:30:32.382Z,1.60
2023-03-14T11:31:32.339Z,3.70
2023-03-14T11:32:32.359Z,1.60
2023-03-14T11:33:32.465Z,1.50
2023-03-14T11:34:32.302Z,1.70
2023-03-14T11:35:32.734Z,1.90
2023-03-14T11:36:32.275Z,1.80
2023-03-14T11:37:32.278Z,2.00
2023-03-14T11:38:32.270Z,1.70
2023-03-14T11:39:32.249Z,2.10
2023-03-14T11:40:32.243Z,1.90
2023-03-14T11:41:32.223Z,2.00
2023-03-14T11:42:32.250Z,1.90
2023-03-14T11:43:32.249Z,1.70
2023-03-14T11:44:32.184Z,1.80
2023-03-14T11:45:32.190Z,1.80
2023-03-14T11:46:32.227Z,1.70
2023-03-14T11:47:32.162Z,1.90
2023-03-14T11:48:32.141Z,1.70
2023-03-14T11:49:32.134Z,1.60
2023-03-14T11:50:32.163Z,1.90
2023-03-14T11:51:32.107Z,2.00
2023-03-14T11:52:32.096Z,1.80
2023-03-14T11:53:32.129Z,2.00
2023-03-14T11:54:32.063Z,1.80
2023-03-14T11:55:32.126Z,1.70
2023-03-14T11:56:32.094Z,2.00
2023-03-14T11:57:32.058Z,1.60
2023-03-14T11:58:32.070Z,1.80
2023-03-14T11:59:32.036Z,1.40
2023-03-14T12:00:32.525Z,1.90
2023-03-14T12:01:31.994Z,1.90
2023-03-14T12:02:32.005Z,2.00
2023-03-14T12:03:32.535Z,1.30
2023-03-14T12:04:31.957Z,1.90
2023-03-14T12:05:31.975Z,2.10
2023-03-14T12:06:32.392Z,2.30
2023-03-14T12:07:31.937Z,1.00
2023-03-14T12:08:31.928Z,1.30
2023-03-14T12:09:31.977Z,1.40
2023-03-14T12:10:33.364Z,0.90
2023-03-14T12:11:31.991Z,0.80
2023-03-14T12:12:31.897Z,0.90
2023-03-14T12:13:31.922Z,1.00
2023-03-14T12:14:31.880Z,1.00
2023-03-14T12:15:31.870Z,0.90
2023-03-14T12:16:31.883Z,0.90
2023-03-14T12:17:31.825Z,1.00
2023-03-14T12:18:31.815Z,0.90
2023-03-14T12:19:31.818Z,1.00
2023-03-14T12:20:31.800Z,0.90
2023-03-14T12:21:31.783Z,1.00
2023-03-14T12:22:31.894Z,1.10
2023-03-14T12:23:31.753Z,1.10
2023-03-14T12:24:33.008Z,1.30
2023-03-14T12:25:31.827Z,1.20
2023-03-14T12:26:31.733Z,1.50
2023-03-14T12:27:31.724Z,1.30
2023-03-14T12:28:31.705Z,1.50
2023-03-14T12:29:31.690Z,1.80
2023-03-14T12:30:31.767Z,1.80
2023-03-14T12:31:31.796Z,2.30
2023-03-14T12:32:31.680Z,1.80
2023-03-14T12:33:31.685Z,1.60
2023-03-14T12:34:31.644Z,1.70
2023-03-14T12:35:31.673Z,1.80
2023-03-14T12:36:32.144Z,1.70
2023-03-14T12:37:31.621Z,2.40
2023-03-14T12:38:31.589Z,2.40
2023-03-14T12:39:31.579Z,2.60
2023-03-14T12:40:31.572Z,2.80
2023-03-14T12:41:31.565Z,3.10
2023-03-14T12:42:46.725Z,3.40
2023-03-14T12:43:31.544Z,3.10
2023-03-14T12:44:31.590Z,3.30
2023-03-14T12:45:31.532Z,3.70
2023-03-14T12:46:31.517Z,3.70
2023-03-14T12:47:31.506Z,3.50
2023-03-14T12:48:31.490Z,4.20
2023-03-14T12:49:31.478Z,4.20
2023-03-14T12:50:31.476Z,4.50
2023-03-14T12:51:31.453Z,4.50
2023-03-14T12:52:31.429Z,4.50
2023-03-14T12:53:31.430Z,4.70
2023-03-14T12:54:31.415Z,4.20
2023-03-14T12:55:31.452Z,4.40
2023-03-14T12:56:31.402Z,4.30
2023-03-14T12:57:31.396Z,4.30
2023-03-14T12:58:31.377Z,4.40
2023-03-14T12:59:31.382Z,4.70
2023-03-14T13:00:31.393Z,4.60
2023-03-14T13:01:31.384Z,4.80
2023-03-14T13:02:31.327Z,4.10
2023-03-14T13:03:31.370Z,4.20
2023-03-14T13:04:39.030Z,4.60
2023-03-14T13:05:31.312Z,4.60
2023-03-14T13:06:31.371Z,4.60
2023-03-14T13:07:31.352Z,4.70
2023-03-14T13:08:31.270Z,4.20
2023-03-14T13:09:31.268Z,3.80
2023-03-14T13:10:37.877Z,4.10
2023-03-14T13:11:31.231Z,3.70
2023-03-14T13:12:31.364Z,4.00
2023-03-14T13:13:31.214Z,3.50
2023-03-14T13:14:31.234Z,3.80
2023-03-14T13:15:31.272Z,3.90
2023-03-14T13:16:31.216Z,4.00
2023-03-14T13:17:36.054Z,4.20
2023-03-14T13:18:33.785Z,4.10
2023-03-14T13:19:32.568Z,4.10
2023-03-14T13:20:34.557Z,4.50